Nisshoumaru — JD3093 — position and weather

sailwx.info

Track history (hours):
 
Tides and Currents Weather Stations Pressure Air Temp Water Temp Dewpoint Dewpoint Depression Visibility Wind Speed Wind Dir Waves Ship Positions

Nisshoumaru

Last reported at 2014-Aug-21 18:10 UTC. Time now 2014-Aug-21 20:05 UTC.
Position N 34°45' E 139°07'.

Length 76 m; draft 4 m.

Type: Cargo ship. MMSI: 431001549.

Date/timePositionNaut miles runAvg speedWind from/ knotsBaromVisibWave heightAir tempDewpointWater temp
2014-Aug-21 18:10N 34°45' E 139°07'812.0
2014-Aug-21 17:31N 34°51' E 139°13'1211.9
2014-Aug-21 16:32N 34°58' E 139°25'1212.1
2014-Aug-21 15:33N 35°04' E 139°37'1211.8
2014-Aug-21 14:33N 35°14' E 139°46'1111.4
2014-Aug-21 13:33N 35°25' E 139°44'7 6.8
2014-Aug-21 12:33N 35°22' E 139°51'0 0.0
2014-Aug-21 11:33N 35°22' E 139°51'0 0.0
2014-Aug-21 10:33N 35°22' E 139°51'0 0.0
2014-Aug-21 09:33N 35°22' E 139°51'0 0.0
2014-Aug-21 08:33N 35°22' E 139°51'0 0.0
2014-Aug-21 07:33N 35°22' E 139°51'0 0.0
2014-Aug-21 06:33N 35°22' E 139°51'0 0.0
2014-Aug-21 05:33N 35°22' E 139°51'0 0.0
2014-Aug-21 04:33N 35°22' E 139°51'0 0.0
2014-Aug-21 03:33N 35°22' E 139°51'0 0.0
2014-Aug-21 02:33N 35°22' E 139°51'0 0.0
2014-Aug-21 01:33N 35°22' E 139°51'0 0.0
2014-Aug-21 00:33N 35°22' E 139°51'0 0.0
2014-Aug-20 23:33N 35°22' E 139°51'2 1.8
2014-Aug-20 22:33N 35°22' E 139°49'0 0.0
2014-Aug-20 21:33N 35°22' E 139°49'0 0.0
2014-Aug-20 20:33N 35°22' E 139°49'0 0.0
2014-Aug-20 19:33N 35°22' E 139°49'0 0.0
2014-Aug-20 18:33N 35°22' E 139°49'0 0.0
2014-Aug-20 17:33N 35°22' E 139°49'0 0.0
2014-Aug-20 16:33N 35°22' E 139°49'3 3.0
2014-Aug-20 15:34N 35°22' E 139°45'1211.9
2014-Aug-20 14:33N 35°10' E 139°47'1312.7
2014-Aug-20 13:33N 34°58' E 139°44'1210.1
2014-Aug-20 12:23N 34°53' E 139°57'910.7
2014-Aug-20 11:33N 34°58' E 140°06'1211.0
2014-Aug-20 10:26N 35°05' E 140°19'1111.5
2014-Aug-20 09:29N 35°13' E 140°28'1112.0
2014-Aug-20 08:33N 35°22' E 140°36'1211.8
2014-Aug-20 07:32N 35°31' E 140°45'1411.9
2014-Aug-20 06:23N 35°43' E 140°55'1212.5
2014-Aug-20 05:27N 35°53' E 140°48'7 7.1
2014-Aug-20 04:29N 35°55' E 140°40'0 0.2
2014-Aug-20 03:33N 35°56' E 140°40'0 0.0
2014-Aug-20 01:18N 35°56' E 140°40'0 0.1
2014-Aug-20 00:26N 35°56' E 140°40'0 0.0
2014-Aug-19 23:33N 35°56' E 140°40'0 0.0
2014-Aug-19 22:32N 35°56' E 140°40'0 0.1
2014-Aug-19 21:33N 35°56' E 140°40'0 0.0
2014-Aug-19 20:16N 35°56' E 140°40'0 0.0
2014-Aug-19 19:33N 35°56' E 140°40'0 0.0
2014-Aug-19 15:14N 35°56' E 140°40'6 6.0
2014-Aug-19 14:16N 35°54' E 140°47'4211.2
2014-Aug-19 10:33N 35°15' E 140°31'1913.7
2014-Aug-19 09:11N 35°02' E 140°14'1414.4
2014-Aug-19 08:14N 34°55' E 140°00'913.3
2014-Aug-19 07:32N 34°53' E 139°49'1211.9
2014-Aug-19 06:33N 35°04' E 139°45'1212.1
2014-Aug-19 05:33N 35°16' E 139°46'1010.4
2014-Aug-19 04:33N 35°27' E 139°46'1211.9
2014-Aug-19 03:33N 35°35' E 139°56'5 5.1
2014-Aug-19 02:33N 35°40' E 139°56'0 0.0
2014-Aug-19 01:33N 35°40' E 139°56'0 0.0
2014-Aug-19 00:33N 35°40' E 139°56'0 0.0
2014-Aug-18 23:33N 35°40' E 139°56'0 0.1
2014-Aug-18 22:33N 35°40' E 139°56'1 1.2
2014-Aug-18 21:33N 35°41' E 139°57'0 0.0
2014-Aug-18 20:33N 35°41' E 139°57'0 0.0
2014-Aug-18 19:33N 35°41' E 139°57'0 0.0
2014-Aug-18 18:33N 35°41' E 139°57'0 0.0
2014-Aug-18 17:33N 35°41' E 139°57'0 0.0
2014-Aug-18 16:33N 35°41' E 139°57'0 0.0
2014-Aug-18 15:33N 35°41' E 139°57'0 0.0
2014-Aug-18 14:33N 35°41' E 139°57'0 0.0
2014-Aug-18 13:33N 35°41' E 139°57'0 0.0
2014-Aug-18 12:33N 35°41' E 139°57'0 0.0
2014-Aug-18 11:33N 35°41' E 139°57'0 0.0
2014-Aug-18 10:33N 35°41' E 139°57'0 0.0
2014-Aug-18 09:33N 35°41' E 139°57'0 0.0
2014-Aug-18 08:33N 35°41' E 139°57'0 0.0
2014-Aug-18 07:33N 35°41' E 139°57'0 0.0
2014-Aug-18 06:33N 35°41' E 139°57'0 0.0
2014-Aug-18 05:33N 35°41' E 139°57'0 0.0
2014-Aug-18 04:33N 35°41' E 139°57'0 0.0
2014-Aug-18 03:33N 35°41' E 139°57'0 0.1
2014-Aug-18 02:33N 35°41' E 139°57'0 0.0
2014-Aug-18 01:33N 35°41' E 139°57'4 3.9
2014-Aug-18 00:33N 35°37' E 139°58'  
2014-Aug-13 04:33N 34°38' E 135°00'1212.0
2014-Aug-13 03:33N 34°36' E 135°15'1110.9
2014-Aug-13 02:33N 34°39' E 135°28'0 0.1
2014-Aug-13 01:31N 34°39' E 135°28'0 0.0
2014-Aug-13 00:33N 34°39' E 135°28'0 0.0
2014-Aug-12 23:33N 34°39' E 135°28'0 0.0
2014-Aug-12 22:33N 34°39' E 135°28'0 0.0
2014-Aug-12 21:33N 34°39' E 135°28'0 0.0
2014-Aug-12 20:33N 34°39' E 135°28'0 0.0
2014-Aug-12 19:33N 34°39' E 135°28'0 0.0
2014-Aug-12 18:33N 34°39' E 135°28'0 0.0
2014-Aug-12 17:33N 34°39' E 135°28'0 0.0
2014-Aug-12 16:33N 34°39' E 135°28'0 0.0
2014-Aug-12 15:33N 34°39' E 135°28'0 0.0
2014-Aug-12 14:32N 34°39' E 135°28'0 0.0
2014-Aug-12 13:33N 34°39' E 135°28'0 0.0
2014-Aug-12 12:33N 34°39' E 135°28'0 0.0
2014-Aug-12 11:33N 34°39' E 135°28'0 0.0
2014-Aug-12 10:33N 34°39' E 135°28'0 0.0
2014-Aug-12 09:33N 34°39' E 135°28'0 0.0
2014-Aug-12 08:33N 34°39' E 135°28'0 0.0
2014-Aug-12 07:33N 34°39' E 135°28'0 0.0
2014-Aug-12 06:30N 34°39' E 135°28'0 0.0
2014-Aug-12 05:33N 34°39' E 135°28'0 0.0
2014-Aug-12 04:33N 34°39' E 135°28'0 0.0
2014-Aug-12 03:33N 34°39' E 135°28'0 0.0
2014-Aug-12 02:31N 34°39' E 135°28'0 0.0
2014-Aug-12 01:33N 34°39' E 135°28'0 0.0
2014-Aug-12 00:33N 34°39' E 135°28'0 0.1
2014-Aug-11 23:33N 34°39' E 135°28'5 4.9
2014-Aug-11 22:33N 34°37' E 135°22'0 0.0
2014-Aug-11 21:33N 34°37' E 135°22'0 0.0
2014-Aug-11 20:33N 34°37' E 135°22'0 0.0
2014-Aug-11 19:33N 34°37' E 135°22'0 0.0
2014-Aug-11 18:32N 34°37' E 135°22'  
Track history (hours):
 
Tides and Currents Weather Stations Pressure Air Temp Water Temp Dewpoint Dewpoint Depression Visibility Wind Speed Wind Dir Waves Ship Positions

Nisshoumaru

Last reported at 2014-Aug-21 18:10 UTC. Time now 2014-Aug-21 20:05 UTC.
Position N 34°45' E 139°07'.

Length 76 m; draft 4 m.

Type: Cargo ship. MMSI: 431001549.

Date/timePositionNaut miles runAvg speedWind from/ knotsBaromVisibWave heightAir tempDewpointWater temp
2014-Aug-21 18:10N 34°45' E 139°07'812.0
2014-Aug-21 17:31N 34°51' E 139°13'1211.9
2014-Aug-21 16:32N 34°58' E 139°25'1212.1
2014-Aug-21 15:33N 35°04' E 139°37'1211.8
2014-Aug-21 14:33N 35°14' E 139°46'1111.4
2014-Aug-21 13:33N 35°25' E 139°44'7 6.8
2014-Aug-21 12:33N 35°22' E 139°51'0 0.0
2014-Aug-21 11:33N 35°22' E 139°51'0 0.0
2014-Aug-21 10:33N 35°22' E 139°51'0 0.0
2014-Aug-21 09:33N 35°22' E 139°51'0 0.0
2014-Aug-21 08:33N 35°22' E 139°51'0 0.0
2014-Aug-21 07:33N 35°22' E 139°51'0 0.0
2014-Aug-21 06:33N 35°22' E 139°51'0 0.0
2014-Aug-21 05:33N 35°22' E 139°51'0 0.0
2014-Aug-21 04:33N 35°22' E 139°51'0 0.0
2014-Aug-21 03:33N 35°22' E 139°51'0 0.0
2014-Aug-21 02:33N 35°22' E 139°51'0 0.0
2014-Aug-21 01:33N 35°22' E 139°51'0 0.0
2014-Aug-21 00:33N 35°22' E 139°51'0 0.0
2014-Aug-20 23:33N 35°22' E 139°51'2 1.8
2014-Aug-20 22:33N 35°22' E 139°49'0 0.0
2014-Aug-20 21:33N 35°22' E 139°49'0 0.0
2014-Aug-20 20:33N 35°22' E 139°49'0 0.0
2014-Aug-20 19:33N 35°22' E 139°49'0 0.0
2014-Aug-20 18:33N 35°22' E 139°49'0 0.0
2014-Aug-20 17:33N 35°22' E 139°49'0 0.0
2014-Aug-20 16:33N 35°22' E 139°49'3 3.0
2014-Aug-20 15:34N 35°22' E 139°45'1211.9
2014-Aug-20 14:33N 35°10' E 139°47'1312.7
2014-Aug-20 13:33N 34°58' E 139°44'1210.1
2014-Aug-20 12:23N 34°53' E 139°57'910.7
2014-Aug-20 11:33N 34°58' E 140°06'1211.0
2014-Aug-20 10:26N 35°05' E 140°19'1111.5
2014-Aug-20 09:29N 35°13' E 140°28'1112.0
2014-Aug-20 08:33N 35°22' E 140°36'1211.8
2014-Aug-20 07:32N 35°31' E 140°45'1411.9
2014-Aug-20 06:23N 35°43' E 140°55'1212.5
2014-Aug-20 05:27N 35°53' E 140°48'7 7.1
2014-Aug-20 04:29N 35°55' E 140°40'0 0.2
2014-Aug-20 03:33N 35°56' E 140°40'0 0.0
2014-Aug-20 01:18N 35°56' E 140°40'0 0.1
2014-Aug-20 00:26N 35°56' E 140°40'0 0.0
2014-Aug-19 23:33N 35°56' E 140°40'0 0.0
2014-Aug-19 22:32N 35°56' E 140°40'0 0.1
2014-Aug-19 21:33N 35°56' E 140°40'0 0.0
2014-Aug-19 20:16N 35°56' E 140°40'0 0.0
2014-Aug-19 19:33N 35°56' E 140°40'0 0.0
2014-Aug-19 15:14N 35°56' E 140°40'6 6.0
2014-Aug-19 14:16N 35°54' E 140°47'4211.2
2014-Aug-19 10:33N 35°15' E 140°31'1913.7
2014-Aug-19 09:11N 35°02' E 140°14'1414.4
2014-Aug-19 08:14N 34°55' E 140°00'913.3
2014-Aug-19 07:32N 34°53' E 139°49'1211.9
2014-Aug-19 06:33N 35°04' E 139°45'1212.1
2014-Aug-19 05:33N 35°16' E 139°46'1010.4
2014-Aug-19 04:33N 35°27' E 139°46'1211.9
2014-Aug-19 03:33N 35°35' E 139°56'5 5.1
2014-Aug-19 02:33N 35°40' E 139°56'0 0.0
2014-Aug-19 01:33N 35°40' E 139°56'0 0.0
2014-Aug-19 00:33N 35°40' E 139°56'0 0.0
2014-Aug-18 23:33N 35°40' E 139°56'0 0.1
2014-Aug-18 22:33N 35°40' E 139°56'1 1.2
2014-Aug-18 21:33N 35°41' E 139°57'0 0.0
2014-Aug-18 20:33N 35°41' E 139°57'0 0.0
2014-Aug-18 19:33N 35°41' E 139°57'0 0.0
2014-Aug-18 18:33N 35°41' E 139°57'0 0.0
2014-Aug-18 17:33N 35°41' E 139°57'0 0.0
2014-Aug-18 16:33N 35°41' E 139°57'0 0.0
2014-Aug-18 15:33N 35°41' E 139°57'0 0.0
2014-Aug-18 14:33N 35°41' E 139°57'0 0.0
2014-Aug-18 13:33N 35°41' E 139°57'0 0.0
2014-Aug-18 12:33N 35°41' E 139°57'0 0.0
2014-Aug-18 11:33N 35°41' E 139°57'0 0.0
2014-Aug-18 10:33N 35°41' E 139°57'0 0.0
2014-Aug-18 09:33N 35°41' E 139°57'0 0.0
2014-Aug-18 08:33N 35°41' E 139°57'0 0.0
2014-Aug-18 07:33N 35°41' E 139°57'0 0.0
2014-Aug-18 06:33N 35°41' E 139°57'0 0.0
2014-Aug-18 05:33N 35°41' E 139°57'0 0.0
2014-Aug-18 04:33N 35°41' E 139°57'0 0.0
2014-Aug-18 03:33N 35°41' E 139°57'0 0.1
2014-Aug-18 02:33N 35°41' E 139°57'0 0.0
2014-Aug-18 01:33N 35°41' E 139°57'4 3.9
2014-Aug-18 00:33N 35°37' E 139°58'  
2014-Aug-13 04:33N 34°38' E 135°00'1212.0
2014-Aug-13 03:33N 34°36' E 135°15'1110.9
2014-Aug-13 02:33N 34°39' E 135°28'0 0.1
2014-Aug-13 01:31N 34°39' E 135°28'0 0.0
2014-Aug-13 00:33N 34°39' E 135°28'0 0.0
2014-Aug-12 23:33N 34°39' E 135°28'0 0.0
2014-Aug-12 22:33N 34°39' E 135°28'0 0.0
2014-Aug-12 21:33N 34°39' E 135°28'0 0.0
2014-Aug-12 20:33N 34°39' E 135°28'0 0.0
2014-Aug-12 19:33N 34°39' E 135°28'0 0.0
2014-Aug-12 18:33N 34°39' E 135°28'0 0.0
2014-Aug-12 17:33N 34°39' E 135°28'0 0.0
2014-Aug-12 16:33N 34°39' E 135°28'0 0.0
2014-Aug-12 15:33N 34°39' E 135°28'0 0.0
2014-Aug-12 14:32N 34°39' E 135°28'0 0.0
2014-Aug-12 13:33N 34°39' E 135°28'0 0.0
2014-Aug-12 12:33N 34°39' E 135°28'0 0.0
2014-Aug-12 11:33N 34°39' E 135°28'0 0.0
2014-Aug-12 10:33N 34°39' E 135°28'0 0.0
2014-Aug-12 09:33N 34°39' E 135°28'0 0.0
2014-Aug-12 08:33N 34°39' E 135°28'0 0.0
2014-Aug-12 07:33N 34°39' E 135°28'0 0.0
2014-Aug-12 06:30N 34°39' E 135°28'0 0.0
2014-Aug-12 05:33N 34°39' E 135°28'0 0.0
2014-Aug-12 04:33N 34°39' E 135°28'0 0.0
2014-Aug-12 03:33N 34°39' E 135°28'0 0.0
2014-Aug-12 02:31N 34°39' E 135°28'0 0.0
2014-Aug-12 01:33N 34°39' E 135°28'0 0.0
2014-Aug-12 00:33N 34°39' E 135°28'0 0.1
2014-Aug-11 23:33N 34°39' E 135°28'5 4.9
2014-Aug-11 22:33N 34°37' E 135°22'0 0.0
2014-Aug-11 21:33N 34°37' E 135°22'0 0.0
2014-Aug-11 20:33N 34°37' E 135°22'0 0.0
2014-Aug-11 19:33N 34°37' E 135°22'0 0.0
2014-Aug-11 18:32N 34°37' E 135°22'  

Dump ship's entire track history